Terminal Aerodrome Forecast
Issued by NWS

Home | Current Version | Previous Version | Text Only | Print | Product List | Glossary Off
Versions: 1 2 3 4 5 6 7 8 9 10 11 12

000
FTUS43 KPAH 021720
TAFCGI
TAF
KCGI 021720Z 0218/0318 20006KT P6SM SCT050
     FM030100 21003KT P6SM FEW150
     FM031500 28006KT P6SM SCT100=

USA.gov is the U.S. government's official web portal to all federal, state and local government web resources and services.